Clackamas — WDF6614 — position and weather

sailwx.info

Track history (hours):
 
Tides and Currents Weather Stations Pressure Air Temp Water Temp Dewpoint Dewpoint Depression Visibility Wind Speed Wind Dir Waves Ship Positions

Clackamas

Owner: Port o Portland, Portland, OR. More information available from US FCC via Universal Licensing System and Coast Guard Vessel Documentation Center.

Last reported at 2016-Sep-27 10:34 UTC. Time now 2016-Sep-27 12:14 UTC.
Position N 46°15' W 123°39'.

MMSI: 367476049.

Date/timePositionNaut miles runAvg speedWind from/ knotsBaromVisibWave heightAir tempDewpointWater temp
2016-Sep-27 10:34N 46°15' W 123°39'0 0.0
2016-Sep-27 00:34N 46°15' W 123°39'1 0.3
2016-Sep-26 20:34N 46°15' W 123°38'0 0.0
2016-Sep-26 19:34N 46°15' W 123°38'1 0.2
2016-Sep-26 15:34N 46°15' W 123°39'0 0.1
2016-Sep-26 13:34N 46°15' W 123°39'0 0.0
2016-Sep-26 11:33N 46°15' W 123°39'0 0.0
2016-Sep-26 08:34N 46°15' W 123°39'0 0.0
2016-Sep-26 02:34N 46°15' W 123°39'0 0.0
2016-Sep-26 01:34N 46°15' W 123°39'0 0.0
2016-Sep-26 00:34N 46°15' W 123°39'0 0.0
2016-Sep-25 21:34N 46°15' W 123°39'0 0.0
2016-Sep-25 17:34N 46°15' W 123°39'0 0.0
2016-Sep-25 16:34N 46°15' W 123°39'0 0.0
2016-Sep-25 15:34N 46°15' W 123°39'0 0.0
2016-Sep-25 14:34N 46°15' W 123°39'0 0.0
2016-Sep-25 12:34N 46°15' W 123°39'0 0.0
2016-Sep-25 11:34N 46°15' W 123°39'0 0.0
2016-Sep-25 10:34N 46°15' W 123°39'0 0.0
2016-Sep-25 09:34N 46°15' W 123°39'0 0.0
2016-Sep-25 07:34N 46°15' W 123°39'0 0.0
2016-Sep-25 04:34N 46°15' W 123°39'0 0.0
2016-Sep-25 00:34N 46°15' W 123°39'0 0.0
2016-Sep-24 22:33N 46°15' W 123°39'0 0.0
2016-Sep-24 21:34N 46°15' W 123°39'0 0.0
2016-Sep-24 19:33N 46°15' W 123°39'0 0.0
2016-Sep-24 18:34N 46°15' W 123°39'0 0.0
2016-Sep-24 17:34N 46°15' W 123°39'0 0.0
2016-Sep-24 16:34N 46°15' W 123°39'0 0.0
2016-Sep-24 14:34N 46°15' W 123°39'0 0.1
2016-Sep-24 12:34N 46°15' W 123°39'0 0.1
2016-Sep-24 10:34N 46°15' W 123°39'0 0.0
2016-Sep-24 09:33N 46°15' W 123°39'0 0.0
2016-Sep-24 03:34N 46°15' W 123°39'0 0.1
2016-Sep-24 02:34N 46°15' W 123°39'0 0.1
2016-Sep-24 01:34N 46°15' W 123°39'0 0.0
2016-Sep-24 00:34N 46°15' W 123°39'1 0.2
2016-Sep-23 19:34N 46°15' W 123°38'0 0.0
2016-Sep-23 17:33N 46°15' W 123°38'0 0.0
2016-Sep-23 16:34N 46°15' W 123°38'1 0.7
2016-Sep-23 15:34N 46°15' W 123°39'0 0.2
2016-Sep-23 13:34N 46°15' W 123°39'1 0.2
2016-Sep-23 09:34N 46°15' W 123°38'1 0.2
2016-Sep-23 06:34N 46°15' W 123°39'0 0.0
2016-Sep-23 04:34N 46°15' W 123°39'0 0.0
2016-Sep-23 03:34N 46°15' W 123°39'0 0.0
2016-Sep-23 02:34N 46°15' W 123°39'0 0.0
2016-Sep-23 01:34N 46°15' W 123°39'0 0.0
2016-Sep-23 00:34N 46°15' W 123°39'0 0.5
2016-Sep-22 23:34N 46°15' W 123°38'0 0.1
2016-Sep-22 20:34N 46°15' W 123°38'2 0.2
2016-Sep-22 12:34N 46°15' W 123°35'2 0.2
2016-Sep-22 04:34N 46°15' W 123°37'1 1.4
2016-Sep-22 03:34N 46°15' W 123°35'0 0.1
2016-Sep-22 00:34N 46°15' W 123°35'1 1.0
2016-Sep-21 23:34N 46°16' W 123°34'1 1.0
2016-Sep-21 22:34N 46°15' W 123°35'2 0.6
2016-Sep-21 19:34N 46°15' W 123°38'3 1.0
2016-Sep-21 16:33N 46°16' W 123°33'1 0.2
2016-Sep-21 09:34N 46°15' W 123°35'0 0.1
2016-Sep-21 08:34N 46°15' W 123°35'0 0.0
2016-Sep-21 05:34N 46°15' W 123°35'0 0.0
2016-Sep-21 03:34N 46°15' W 123°35'0 0.1
2016-Sep-21 02:33N 46°15' W 123°35'0 0.1
2016-Sep-20 17:34N 46°16' W 123°34'0 0.1
2016-Sep-20 14:34N 46°15' W 123°35'0 0.4
2016-Sep-20 13:34N 46°15' W 123°34'0 0.1
2016-Sep-20 10:34N 46°15' W 123°35'0 0.2
2016-Sep-20 08:34N 46°15' W 123°35'0 0.1
2016-Sep-20 07:34N 46°15' W 123°35'0 0.3
2016-Sep-20 06:34N 46°15' W 123°35'0 0.0
2016-Sep-20 02:34N 46°15' W 123°35'1 0.4
2016-Sep-19 23:34N 46°15' W 123°37'1 0.3
2016-Sep-19 19:34N 46°15' W 123°35'0 0.2
2016-Sep-19 18:33N 46°15' W 123°35'0 0.3
2016-Sep-19 16:34N 46°15' W 123°34'0 0.2
2016-Sep-19 14:34N 46°15' W 123°35'0 0.0
2016-Sep-19 13:34N 46°15' W 123°35'0 0.0
2016-Sep-19 12:34N 46°15' W 123°35'0 0.0
2016-Sep-19 11:34N 46°15' W 123°35'0 0.0
2016-Sep-19 09:34N 46°15' W 123°35'0 0.0
2016-Sep-19 07:34N 46°15' W 123°35'0 0.0
2016-Sep-19 06:33N 46°15' W 123°35'0 0.0
2016-Sep-19 03:34N 46°15' W 123°35'0 0.0
2016-Sep-19 02:34N 46°15' W 123°35'0 0.0
2016-Sep-19 00:33N 46°15' W 123°35'0 0.0
2016-Sep-18 19:34N 46°15' W 123°35'0 0.0
2016-Sep-18 15:34N 46°16' W 123°35'0 0.1
2016-Sep-18 14:34N 46°15' W 123°35'0 0.0
2016-Sep-18 10:34N 46°15' W 123°35'0 0.1
2016-Sep-18 09:34N 46°15' W 123°35'0 0.0
2016-Sep-18 02:34N 46°15' W 123°35'0 0.0
2016-Sep-18 01:34N 46°15' W 123°35'0 0.0
2016-Sep-18 00:34N 46°15' W 123°35'0 0.0
2016-Sep-17 22:34N 46°15' W 123°35'0 0.0
2016-Sep-17 21:34N 46°15' W 123°35'0 0.0
2016-Sep-17 20:34N 46°15' W 123°35'0 0.0
2016-Sep-17 19:16N 46°15' W 123°35'0 0.0
2016-Sep-17 13:33N 46°15' W 123°35'0 0.0
2016-Sep-17 12:34N 46°15' W 123°35'  
Track history (hours):
 
Tides and Currents Weather Stations Pressure Air Temp Water Temp Dewpoint Dewpoint Depression Visibility Wind Speed Wind Dir Waves Ship Positions

Clackamas

Owner: Port o Portland, Portland, OR. More information available from US FCC via Universal Licensing System and Coast Guard Vessel Documentation Center.

Last reported at 2016-Sep-27 10:34 UTC. Time now 2016-Sep-27 12:14 UTC.
Position N 46°15' W 123°39'.

MMSI: 367476049.

Date/timePositionNaut miles runAvg speedWind from/ knotsBaromVisibWave heightAir tempDewpointWater temp
2016-Sep-27 10:34N 46°15' W 123°39'0 0.0
2016-Sep-27 00:34N 46°15' W 123°39'1 0.3
2016-Sep-26 20:34N 46°15' W 123°38'0 0.0
2016-Sep-26 19:34N 46°15' W 123°38'1 0.2
2016-Sep-26 15:34N 46°15' W 123°39'0 0.1
2016-Sep-26 13:34N 46°15' W 123°39'0 0.0
2016-Sep-26 11:33N 46°15' W 123°39'0 0.0
2016-Sep-26 08:34N 46°15' W 123°39'0 0.0
2016-Sep-26 02:34N 46°15' W 123°39'0 0.0
2016-Sep-26 01:34N 46°15' W 123°39'0 0.0
2016-Sep-26 00:34N 46°15' W 123°39'0 0.0
2016-Sep-25 21:34N 46°15' W 123°39'0 0.0
2016-Sep-25 17:34N 46°15' W 123°39'0 0.0
2016-Sep-25 16:34N 46°15' W 123°39'0 0.0
2016-Sep-25 15:34N 46°15' W 123°39'0 0.0
2016-Sep-25 14:34N 46°15' W 123°39'0 0.0
2016-Sep-25 12:34N 46°15' W 123°39'0 0.0
2016-Sep-25 11:34N 46°15' W 123°39'0 0.0
2016-Sep-25 10:34N 46°15' W 123°39'0 0.0
2016-Sep-25 09:34N 46°15' W 123°39'0 0.0
2016-Sep-25 07:34N 46°15' W 123°39'0 0.0
2016-Sep-25 04:34N 46°15' W 123°39'0 0.0
2016-Sep-25 00:34N 46°15' W 123°39'0 0.0
2016-Sep-24 22:33N 46°15' W 123°39'0 0.0
2016-Sep-24 21:34N 46°15' W 123°39'0 0.0
2016-Sep-24 19:33N 46°15' W 123°39'0 0.0
2016-Sep-24 18:34N 46°15' W 123°39'0 0.0
2016-Sep-24 17:34N 46°15' W 123°39'0 0.0
2016-Sep-24 16:34N 46°15' W 123°39'0 0.0
2016-Sep-24 14:34N 46°15' W 123°39'0 0.1
2016-Sep-24 12:34N 46°15' W 123°39'0 0.1
2016-Sep-24 10:34N 46°15' W 123°39'0 0.0
2016-Sep-24 09:33N 46°15' W 123°39'0 0.0
2016-Sep-24 03:34N 46°15' W 123°39'0 0.1
2016-Sep-24 02:34N 46°15' W 123°39'0 0.1
2016-Sep-24 01:34N 46°15' W 123°39'0 0.0
2016-Sep-24 00:34N 46°15' W 123°39'1 0.2
2016-Sep-23 19:34N 46°15' W 123°38'0 0.0
2016-Sep-23 17:33N 46°15' W 123°38'0 0.0
2016-Sep-23 16:34N 46°15' W 123°38'1 0.7
2016-Sep-23 15:34N 46°15' W 123°39'0 0.2
2016-Sep-23 13:34N 46°15' W 123°39'1 0.2
2016-Sep-23 09:34N 46°15' W 123°38'1 0.2
2016-Sep-23 06:34N 46°15' W 123°39'0 0.0
2016-Sep-23 04:34N 46°15' W 123°39'0 0.0
2016-Sep-23 03:34N 46°15' W 123°39'0 0.0
2016-Sep-23 02:34N 46°15' W 123°39'0 0.0
2016-Sep-23 01:34N 46°15' W 123°39'0 0.0
2016-Sep-23 00:34N 46°15' W 123°39'0 0.5
2016-Sep-22 23:34N 46°15' W 123°38'0 0.1
2016-Sep-22 20:34N 46°15' W 123°38'2 0.2
2016-Sep-22 12:34N 46°15' W 123°35'2 0.2
2016-Sep-22 04:34N 46°15' W 123°37'1 1.4
2016-Sep-22 03:34N 46°15' W 123°35'0 0.1
2016-Sep-22 00:34N 46°15' W 123°35'1 1.0
2016-Sep-21 23:34N 46°16' W 123°34'1 1.0
2016-Sep-21 22:34N 46°15' W 123°35'2 0.6
2016-Sep-21 19:34N 46°15' W 123°38'3 1.0
2016-Sep-21 16:33N 46°16' W 123°33'1 0.2
2016-Sep-21 09:34N 46°15' W 123°35'0 0.1
2016-Sep-21 08:34N 46°15' W 123°35'0 0.0
2016-Sep-21 05:34N 46°15' W 123°35'0 0.0
2016-Sep-21 03:34N 46°15' W 123°35'0 0.1
2016-Sep-21 02:33N 46°15' W 123°35'0 0.1
2016-Sep-20 17:34N 46°16' W 123°34'0 0.1
2016-Sep-20 14:34N 46°15' W 123°35'0 0.4
2016-Sep-20 13:34N 46°15' W 123°34'0 0.1
2016-Sep-20 10:34N 46°15' W 123°35'0 0.2
2016-Sep-20 08:34N 46°15' W 123°35'0 0.1
2016-Sep-20 07:34N 46°15' W 123°35'0 0.3
2016-Sep-20 06:34N 46°15' W 123°35'0 0.0
2016-Sep-20 02:34N 46°15' W 123°35'1 0.4
2016-Sep-19 23:34N 46°15' W 123°37'1 0.3
2016-Sep-19 19:34N 46°15' W 123°35'0 0.2
2016-Sep-19 18:33N 46°15' W 123°35'0 0.3
2016-Sep-19 16:34N 46°15' W 123°34'0 0.2
2016-Sep-19 14:34N 46°15' W 123°35'0 0.0
2016-Sep-19 13:34N 46°15' W 123°35'0 0.0
2016-Sep-19 12:34N 46°15' W 123°35'0 0.0
2016-Sep-19 11:34N 46°15' W 123°35'0 0.0
2016-Sep-19 09:34N 46°15' W 123°35'0 0.0
2016-Sep-19 07:34N 46°15' W 123°35'0 0.0
2016-Sep-19 06:33N 46°15' W 123°35'0 0.0
2016-Sep-19 03:34N 46°15' W 123°35'0 0.0
2016-Sep-19 02:34N 46°15' W 123°35'0 0.0
2016-Sep-19 00:33N 46°15' W 123°35'0 0.0
2016-Sep-18 19:34N 46°15' W 123°35'0 0.0
2016-Sep-18 15:34N 46°16' W 123°35'0 0.1
2016-Sep-18 14:34N 46°15' W 123°35'0 0.0
2016-Sep-18 10:34N 46°15' W 123°35'0 0.1
2016-Sep-18 09:34N 46°15' W 123°35'0 0.0
2016-Sep-18 02:34N 46°15' W 123°35'0 0.0
2016-Sep-18 01:34N 46°15' W 123°35'0 0.0
2016-Sep-18 00:34N 46°15' W 123°35'0 0.0
2016-Sep-17 22:34N 46°15' W 123°35'0 0.0
2016-Sep-17 21:34N 46°15' W 123°35'0 0.0
2016-Sep-17 20:34N 46°15' W 123°35'0 0.0
2016-Sep-17 19:16N 46°15' W 123°35'0 0.0
2016-Sep-17 13:33N 46°15' W 123°35'0 0.0
2016-Sep-17 12:34N 46°15' W 123°35'  

Dump ship's entire track history